sensor_id;sensor_type;location;lat;lon;timestamp;temperature;humidity
4366;DHT22;2196;47.422;9.656;2022-10-31T00:00:06;9.60;99.90
4366;DHT22;2196;47.422;9.656;2022-10-31T00:02:33;9.60;99.90
4366;DHT22;2196;47.422;9.656;2022-10-31T00:05:00;9.60;99.90
4366;DHT22;2196;47.422;9.656;2022-10-31T00:07:27;9.60;99.90
4366;DHT22;2196;47.422;9.656;2022-10-31T00:09:54;9.60;99.90
4366;DHT22;2196;47.422;9.656;2022-10-31T00:12:22;9.50;99.90
4366;DHT22;2196;47.422;9.656;2022-10-31T00:14:49;9.50;99.90
4366;DHT22;2196;47.422;9.656;2022-10-31T00:17:16;9.50;99.90
4366;DHT22;2196;47.422;9.656;2022-10-31T00:19:43;9.40;99.90
4366;DHT22;2196;47.422;9.656;2022-10-31T00:22:11;9.40;99.90
4366;DHT22;2196;47.422;9.656;2022-10-31T00:24:37;9.40;99.90
4366;DHT22;2196;47.422;9.656;2022-10-31T00:27:04;9.30;99.90
4366;DHT22;2196;47.422;9.656;2022-10-31T00:29:33;9.30;99.90
4366;DHT22;2196;47.422;9.656;2022-10-31T00:32:00;9.30;99.90
4366;DHT22;2196;47.422;9.656;2022-10-31T00:34:27;9.20;99.90
4366;DHT22;2196;47.422;9.656;2022-10-31T00:36:54;9.20;99.90
4366;DHT22;2196;47.422;9.656;2022-10-31T00:39:21;9.20;99.90
4366;DHT22;2196;47.422;9.656;2022-10-31T00:41:47;9.30;99.90
4366;DHT22;2196;47.422;9.656;2022-10-31T00:44:17;9.20;99.90
4366;DHT22;2196;47.422;9.656;2022-10-31T00:46:46;9.20;99.90
4366;DHT22;2196;47.422;9.656;2022-10-31T00:49:13;9.20;99.90
4366;DHT22;2196;47.422;9.656;2022-10-31T00:51:40;9.20;99.90
4366;DHT22;2196;47.422;9.656;2022-10-31T00:54:09;9.20;99.90
4366;DHT22;2196;47.422;9.656;2022-10-31T00:56:36;9.10;99.90
4366;DHT22;2196;47.422;9.656;2022-10-31T00:59:03;9.10;99.90
4366;DHT22;2196;47.422;9.656;2022-10-31T01:01:30;9.10;99.90
4366;DHT22;2196;47.422;9.656;2022-10-31T01:03:58;9.00;99.90
4366;DHT22;2196;47.422;9.656;2022-10-31T01:06:25;8.90;99.90
4366;DHT22;2196;47.422;9.656;2022-10-31T01:08:52;8.90;99.90
4366;DHT22;2196;47.422;9.656;2022-10-31T01:11:21;8.90;99.90
4366;DHT22;2196;47.422;9.656;2022-10-31T01:13:51;8.90;99.90
4366;DHT22;2196;47.422;9.656;2022-10-31T01:16:20;8.90;99.90
4366;DHT22;2196;47.422;9.656;2022-10-31T01:18:47;8.90;99.90
4366;DHT22;2196;47.422;9.656;2022-10-31T01:21:17;8.90;99.90
4366;DHT22;2196;47.422;9.656;2022-10-31T01:23:45;8.90;99.90
4366;DHT22;2196;47.422;9.656;2022-10-31T01:26:14;8.90;99.90
4366;DHT22;2196;47.422;9.656;2022-10-31T01:28:45;8.80;99.90
4366;DHT22;2196;47.422;9.656;2022-10-31T01:31:13;8.80;99.90
4366;DHT22;2196;47.422;9.656;2022-10-31T01:33:40;8.70;99.90
4366;DHT22;2196;47.422;9.656;2022-10-31T01:36:17;8.70;99.90
4366;DHT22;2196;47.422;9.656;2022-10-31T01:38:44;8.70;99.90
4366;DHT22;2196;47.422;9.656;2022-10-31T01:41:13;8.70;99.90
4366;DHT22;2196;47.422;9.656;2022-10-31T01:43:46;8.70;99.90
4366;DHT22;2196;47.422;9.656;2022-10-31T01:46:17;8.60;99.90
4366;DHT22;2196;47.422;9.656;2022-10-31T01:48:44;8.60;99.90
4366;DHT22;2196;47.422;9.656;2022-10-31T01:51:12;8.60;99.90
4366;DHT22;2196;47.422;9.656;2022-10-31T01:53:42;8.70;99.90
4366;DHT22;2196;47.422;9.656;2022-10-31T01:56:12;8.60;99.90
4366;DHT22;2196;47.422;9.656;2022-10-31T01:58:39;8.60;99.90
4366;DHT22;2196;47.422;9.656;2022-10-31T02:01:06;8.60;99.90
4366;DHT22;2196;47.422;9.656;2022-10-31T02:03:34;8.70;99.90
4366;DHT22;2196;47.422;9.656;2022-10-31T02:06:01;8.60;99.90
4366;DHT22;2196;47.422;9.656;2022-10-31T02:08:31;8.60;99.90
4366;DHT22;2196;47.422;9.656;2022-10-31T02:11:01;8.60;99.90
4366;DHT22;2196;47.422;9.656;2022-10-31T02:13:29;8.50;99.90
4366;DHT22;2196;47.422;9.656;2022-10-31T02:15:57;8.60;99.90
4366;DHT22;2196;47.422;9.656;2022-10-31T02:18:27;8.60;99.90
4366;DHT22;2196;47.422;9.656;2022-10-31T02:21:00;8.60;99.90
4366;DHT22;2196;47.422;9.656;2022-10-31T02:26:52;8.50;99.90
4366;DHT22;2196;47.422;9.656;2022-10-31T02:30:04;8.40;99.90
4366;DHT22;2196;47.422;9.656;2022-10-31T02:32:51;8.40;99.90
4366;DHT22;2196;47.422;9.656;2022-10-31T02:35:35;8.40;99.90
4366;DHT22;2196;47.422;9.656;2022-10-31T02:38:14;8.40;99.90
4366;DHT22;2196;47.422;9.656;2022-10-31T02:40:51;8.40;99.90
4366;DHT22;2196;47.422;9.656;2022-10-31T02:43:21;8.40;99.90
4366;DHT22;2196;47.422;9.656;2022-10-31T02:45:57;8.40;99.90
4366;DHT22;2196;47.422;9.656;2022-10-31T02:48:28;8.40;99.90
4366;DHT22;2196;47.422;9.656;2022-10-31T02:50:57;8.40;99.90
4366;DHT22;2196;47.422;9.656;2022-10-31T02:53:26;8.30;99.90
4366;DHT22;2196;47.422;9.656;2022-10-31T02:55:58;8.30;99.90
4366;DHT22;2196;47.422;9.656;2022-10-31T02:58:27;8.30;99.90
4366;DHT22;2196;47.422;9.656;2022-10-31T03:01:17;8.20;99.90
4366;DHT22;2196;47.422;9.656;2022-10-31T03:04:02;8.20;99.90
4366;DHT22;2196;47.422;9.656;2022-10-31T03:06:37;8.20;99.90
4366;DHT22;2196;47.422;9.656;2022-10-31T03:09:12;8.10;99.90
4366;DHT22;2196;47.422;9.656;2022-10-31T03:14:38;8.00;99.90
4366;DHT22;2196;47.422;9.656;2022-10-31T03:17:08;8.00;99.90
4366;DHT22;2196;47.422;9.656;2022-10-31T03:19:41;8.00;99.90
4366;DHT22;2196;47.422;9.656;2022-10-31T03:22:15;8.00;99.90
4366;DHT22;2196;47.422;9.656;2022-10-31T03:24:43;8.00;99.90
4366;DHT22;2196;47.422;9.656;2022-10-31T03:27:14;8.10;99.90
4366;DHT22;2196;47.422;9.656;2022-10-31T03:29:44;8.10;99.90
4366;DHT22;2196;47.422;9.656;2022-10-31T03:32:15;8.10;99.90
4366;DHT22;2196;47.422;9.656;2022-10-31T03:34:45;8.10;99.90
4366;DHT22;2196;47.422;9.656;2022-10-31T03:37:15;8.00;99.90
4366;DHT22;2196;47.422;9.656;2022-10-31T03:39:45;8.00;99.90
4366;DHT22;2196;47.422;9.656;2022-10-31T03:42:15;8.00;99.90
4366;DHT22;2196;47.422;9.656;2022-10-31T03:44:46;8.10;99.90
4366;DHT22;2196;47.422;9.656;2022-10-31T03:47:13;8.10;99.90
4366;DHT22;2196;47.422;9.656;2022-10-31T03:49:41;8.00;99.90
4366;DHT22;2196;47.422;9.656;2022-10-31T03:52:16;8.10;99.90
4366;DHT22;2196;47.422;9.656;2022-10-31T03:54:48;8.00;99.90
4366;DHT22;2196;47.422;9.656;2022-10-31T03:57:22;8.00;99.90
4366;DHT22;2196;47.422;9.656;2022-10-31T03:59:53;7.90;99.90
4366;DHT22;2196;47.422;9.656;2022-10-31T04:02:24;7.80;99.90
4366;DHT22;2196;47.422;9.656;2022-10-31T04:04:52;7.80;99.90
4366;DHT22;2196;47.422;9.656;2022-10-31T04:07:22;7.80;99.90
4366;DHT22;2196;47.422;9.656;2022-10-31T04:09:52;7.70;99.90
4366;DHT22;2196;47.422;9.656;2022-10-31T04:12:20;7.70;99.90
4366;DHT22;2196;47.422;9.656;2022-10-31T04:14:50;7.70;99.90
4366;DHT22;2196;47.422;9.656;2022-10-31T04:17:21;7.60;99.90
4366;DHT22;2196;47.422;9.656;2022-10-31T04:19:49;7.60;99.90
4366;DHT22;2196;47.422;9.656;2022-10-31T04:22:16;7.50;99.90
4366;DHT22;2196;47.422;9.656;2022-10-31T04:24:44;7.60;99.90
4366;DHT22;2196;47.422;9.656;2022-10-31T04:27:11;7.50;99.90
4366;DHT22;2196;47.422;9.656;2022-10-31T04:29:38;7.50;99.90
4366;DHT22;2196;47.422;9.656;2022-10-31T04:32:05;7.50;99.90
4366;DHT22;2196;47.422;9.656;2022-10-31T04:34:32;7.50;99.90
4366;DHT22;2196;47.422;9.656;2022-10-31T04:36:59;7.50;99.90
4366;DHT22;2196;47.422;9.656;2022-10-31T04:39:26;7.40;99.90
4366;DHT22;2196;47.422;9.656;2022-10-31T04:41:54;7.40;99.90
4366;DHT22;2196;47.422;9.656;2022-10-31T04:44:21;7.30;99.90
4366;DHT22;2196;47.422;9.656;2022-10-31T04:46:48;7.30;99.90
4366;DHT22;2196;47.422;9.656;2022-10-31T04:49:15;7.30;99.90
4366;DHT22;2196;47.422;9.656;2022-10-31T04:51:42;7.30;99.90
4366;DHT22;2196;47.422;9.656;2022-10-31T04:54:12;7.40;99.90
4366;DHT22;2196;47.422;9.656;2022-10-31T04:56:39;7.40;99.90
4366;DHT22;2196;47.422;9.656;2022-10-31T04:59:08;7.40;99.90
4366;DHT22;2196;47.422;9.656;2022-10-31T05:01:38;7.40;99.90
4366;DHT22;2196;47.422;9.656;2022-10-31T05:04:05;7.40;99.90
4366;DHT22;2196;47.422;9.656;2022-10-31T05:06:32;7.40;99.90
4366;DHT22;2196;47.422;9.656;2022-10-31T05:08:58;7.40;99.90
4366;DHT22;2196;47.422;9.656;2022-10-31T05:11:25;7.40;99.90
4366;DHT22;2196;47.422;9.656;2022-10-31T05:13:52;7.40;99.90
4366;DHT22;2196;47.422;9.656;2022-10-31T05:16:21;7.30;99.90
4366;DHT22;2196;47.422;9.656;2022-10-31T05:18:48;7.30;99.90
4366;DHT22;2196;47.422;9.656;2022-10-31T05:21:15;7.30;99.90
4366;DHT22;2196;47.422;9.656;2022-10-31T05:23:41;7.30;99.90
4366;DHT22;2196;47.422;9.656;2022-10-31T05:26:08;7.30;99.90
4366;DHT22;2196;47.422;9.656;2022-10-31T05:28:35;7.30;99.90
4366;DHT22;2196;47.422;9.656;2022-10-31T05:31:03;7.40;99.90
4366;DHT22;2196;47.422;9.656;2022-10-31T05:33:31;7.40;99.90
4366;DHT22;2196;47.422;9.656;2022-10-31T05:35:58;7.40;99.90
4366;DHT22;2196;47.422;9.656;2022-10-31T05:38:25;7.40;99.90
4366;DHT22;2196;47.422;9.656;2022-10-31T05:40:54;7.40;99.90
4366;DHT22;2196;47.422;9.656;2022-10-31T05:43:23;7.40;99.90
4366;DHT22;2196;47.422;9.656;2022-10-31T05:45:52;7.40;99.90
4366;DHT22;2196;47.422;9.656;2022-10-31T05:48:19;7.40;99.90
4366;DHT22;2196;47.422;9.656;2022-10-31T05:50:48;7.30;99.90
4366;DHT22;2196;47.422;9.656;2022-10-31T05:53:16;7.40;99.90
4366;DHT22;2196;47.422;9.656;2022-10-31T05:55:43;7.30;99.90
4366;DHT22;2196;47.422;9.656;2022-10-31T05:58:10;7.30;99.90
4366;DHT22;2196;47.422;9.656;2022-10-31T06:00:38;7.40;99.90
4366;DHT22;2196;47.422;9.656;2022-10-31T06:03:07;7.40;99.90
4366;DHT22;2196;47.422;9.656;2022-10-31T06:05:35;7.40;99.90
4366;DHT22;2196;47.422;9.656;2022-10-31T06:08:03;7.40;99.90
4366;DHT22;2196;47.422;9.656;2022-10-31T06:10:31;7.40;99.90
4366;DHT22;2196;47.422;9.656;2022-10-31T06:12:58;7.40;99.90
4366;DHT22;2196;47.422;9.656;2022-10-31T06:15:25;7.40;99.90
4366;DHT22;2196;47.422;9.656;2022-10-31T06:17:59;7.30;99.90
4366;DHT22;2196;47.422;9.656;2022-10-31T06:20:27;7.40;99.90
4366;DHT22;2196;47.422;9.656;2022-10-31T06:22:54;7.40;99.90
4366;DHT22;2196;47.422;9.656;2022-10-31T06:25:22;7.40;99.90
4366;DHT22;2196;47.422;9.656;2022-10-31T06:27:49;7.40;99.90
4366;DHT22;2196;47.422;9.656;2022-10-31T06:30:16;7.40;99.90
4366;DHT22;2196;47.422;9.656;2022-10-31T06:32:43;7.40;99.90
4366;DHT22;2196;47.422;9.656;2022-10-31T06:35:10;7.40;99.90
4366;DHT22;2196;47.422;9.656;2022-10-31T06:37:38;7.50;99.90
4366;DHT22;2196;47.422;9.656;2022-10-31T06:40:06;7.50;99.90
4366;DHT22;2196;47.422;9.656;2022-10-31T06:42:34;7.50;99.90
4366;DHT22;2196;47.422;9.656;2022-10-31T06:45:02;7.60;99.90
4366;DHT22;2196;47.422;9.656;2022-10-31T06:47:29;7.60;99.90
4366;DHT22;2196;47.422;9.656;2022-10-31T06:49:56;7.70;99.90
4366;DHT22;2196;47.422;9.656;2022-10-31T06:52:23;7.70;99.90
4366;DHT22;2196;47.422;9.656;2022-10-31T06:54:50;7.80;99.90
4366;DHT22;2196;47.422;9.656;2022-10-31T06:57:17;7.80;99.90
4366;DHT22;2196;47.422;9.656;2022-10-31T06:59:45;7.90;99.90
4366;DHT22;2196;47.422;9.656;2022-10-31T07:02:12;8.00;99.90
4366;DHT22;2196;47.422;9.656;2022-10-31T07:04:39;8.00;99.90
4366;DHT22;2196;47.422;9.656;2022-10-31T07:07:06;8.10;99.90
4366;DHT22;2196;47.422;9.656;2022-10-31T07:09:33;8.20;99.90
4366;DHT22;2196;47.422;9.656;2022-10-31T07:12:00;8.20;99.90
4366;DHT22;2196;47.422;9.656;2022-10-31T07:14:27;8.30;99.90
4366;DHT22;2196;47.422;9.656;2022-10-31T07:16:55;8.40;99.90
4366;DHT22;2196;47.422;9.656;2022-10-31T07:19:22;8.30;99.90
4366;DHT22;2196;47.422;9.656;2022-10-31T07:21:49;8.30;99.90
4366;DHT22;2196;47.422;9.656;2022-10-31T07:24:16;8.30;99.90
4366;DHT22;2196;47.422;9.656;2022-10-31T07:26:43;8.30;99.90
4366;DHT22;2196;47.422;9.656;2022-10-31T07:29:11;8.40;99.90
4366;DHT22;2196;47.422;9.656;2022-10-31T07:31:41;8.40;99.90
4366;DHT22;2196;47.422;9.656;2022-10-31T07:34:14;8.50;99.90
4366;DHT22;2196;47.422;9.656;2022-10-31T07:36:41;8.60;99.90
4366;DHT22;2196;47.422;9.656;2022-10-31T07:39:08;8.60;99.90
4366;DHT22;2196;47.422;9.656;2022-10-31T07:41:38;8.70;99.90
4366;DHT22;2196;47.422;9.656;2022-10-31T07:44:06;8.90;99.90
4366;DHT22;2196;47.422;9.656;2022-10-31T07:46:32;9.10;99.90
4366;DHT22;2196;47.422;9.656;2022-10-31T07:49:00;9.30;99.90
4366;DHT22;2196;47.422;9.656;2022-10-31T07:51:28;9.50;99.90
4366;DHT22;2196;47.422;9.656;2022-10-31T07:53:55;9.60;99.90
4366;DHT22;2196;47.422;9.656;2022-10-31T07:56:22;9.80;99.90
4366;DHT22;2196;47.422;9.656;2022-10-31T07:58:49;10.00;99.90
4366;DHT22;2196;47.422;9.656;2022-10-31T08:01:16;10.20;99.90
4366;DHT22;2196;47.422;9.656;2022-10-31T08:03:43;10.40;99.90
4366;DHT22;2196;47.422;9.656;2022-10-31T08:06:10;10.50;99.90
4366;DHT22;2196;47.422;9.656;2022-10-31T08:08:38;10.70;99.90
4366;DHT22;2196;47.422;9.656;2022-10-31T08:11:05;10.80;99.90
4366;DHT22;2196;47.422;9.656;2022-10-31T08:13:32;10.80;99.90
4366;DHT22;2196;47.422;9.656;2022-10-31T08:16:00;11.00;99.90
4366;DHT22;2196;47.422;9.656;2022-10-31T08:18:30;10.90;99.90
4366;DHT22;2196;47.422;9.656;2022-10-31T08:20:57;11.00;99.90
4366;DHT22;2196;47.422;9.656;2022-10-31T08:23:24;11.00;99.90
4366;DHT22;2196;47.422;9.656;2022-10-31T08:25:52;10.90;99.90
4366;DHT22;2196;47.422;9.656;2022-10-31T08:28:19;10.80;99.90
4366;DHT22;2196;47.422;9.656;2022-10-31T08:30:46;10.80;99.90
4366;DHT22;2196;47.422;9.656;2022-10-31T08:33:15;10.80;99.90
4366;DHT22;2196;47.422;9.656;2022-10-31T08:35:42;10.70;99.90
4366;DHT22;2196;47.422;9.656;2022-10-31T08:38:11;10.80;99.90
4366;DHT22;2196;47.422;9.656;2022-10-31T08:40:38;10.90;99.90
4366;DHT22;2196;47.422;9.656;2022-10-31T08:43:11;10.90;99.90
4366;DHT22;2196;47.422;9.656;2022-10-31T08:45:38;10.90;99.90
4366;DHT22;2196;47.422;9.656;2022-10-31T08:48:09;10.90;99.90
4366;DHT22;2196;47.422;9.656;2022-10-31T08:50:36;11.10;99.90
4366;DHT22;2196;47.422;9.656;2022-10-31T08:53:05;11.20;99.90
4366;DHT22;2196;47.422;9.656;2022-10-31T08:55:34;11.20;99.90
4366;DHT22;2196;47.422;9.656;2022-10-31T08:58:02;11.20;99.90
4366;DHT22;2196;47.422;9.656;2022-10-31T09:00:31;11.20;99.90
4366;DHT22;2196;47.422;9.656;2022-10-31T09:02:59;11.30;99.90
4366;DHT22;2196;47.422;9.656;2022-10-31T09:05:26;11.40;99.90
4366;DHT22;2196;47.422;9.656;2022-10-31T09:07:55;11.50;99.90
4366;DHT22;2196;47.422;9.656;2022-10-31T09:10:23;11.60;99.90
4366;DHT22;2196;47.422;9.656;2022-10-31T09:12:55;11.70;99.90
4366;DHT22;2196;47.422;9.656;2022-10-31T09:15:22;11.80;99.90
4366;DHT22;2196;47.422;9.656;2022-10-31T09:17:50;12.00;99.90
4366;DHT22;2196;47.422;9.656;2022-10-31T09:20:18;12.00;99.90
4366;DHT22;2196;47.422;9.656;2022-10-31T09:22:45;12.10;99.90
4366;DHT22;2196;47.422;9.656;2022-10-31T09:25:12;12.10;99.90
4366;DHT22;2196;47.422;9.656;2022-10-31T09:27:39;12.10;99.90
4366;DHT22;2196;47.422;9.656;2022-10-31T09:30:07;12.20;99.90
4366;DHT22;2196;47.422;9.656;2022-10-31T09:32:34;12.30;99.90
4366;DHT22;2196;47.422;9.656;2022-10-31T09:35:02;12.40;99.90
4366;DHT22;2196;47.422;9.656;2022-10-31T09:37:29;12.50;99.90
4366;DHT22;2196;47.422;9.656;2022-10-31T09:39:56;12.60;99.90
4366;DHT22;2196;47.422;9.656;2022-10-31T09:42:47;12.50;99.90
4366;DHT22;2196;47.422;9.656;2022-10-31T09:45:20;12.70;99.90
4366;DHT22;2196;47.422;9.656;2022-10-31T09:47:59;12.80;99.90
4366;DHT22;2196;47.422;9.656;2022-10-31T09:50:37;13.00;99.90
4366;DHT22;2196;47.422;9.656;2022-10-31T09:53:09;13.20;99.90
4366;DHT22;2196;47.422;9.656;2022-10-31T09:55:40;13.40;99.90
4366;DHT22;2196;47.422;9.656;2022-10-31T09:58:10;13.50;99.90
4366;DHT22;2196;47.422;9.656;2022-10-31T10:00:40;13.50;99.90
4366;DHT22;2196;47.422;9.656;2022-10-31T10:03:12;13.60;99.90
4366;DHT22;2196;47.422;9.656;2022-10-31T10:05:49;13.60;99.90
4366;DHT22;2196;47.422;9.656;2022-10-31T10:08:21;13.70;99.90
4366;DHT22;2196;47.422;9.656;2022-10-31T10:10:51;13.80;99.90
4366;DHT22;2196;47.422;9.656;2022-10-31T10:13:38;13.60;99.90
4366;DHT22;2196;47.422;9.656;2022-10-31T10:16:17;13.50;99.90
4366;DHT22;2196;47.422;9.656;2022-10-31T10:18:57;13.50;99.90
4366;DHT22;2196;47.422;9.656;2022-10-31T10:21:36;13.60;99.90
4366;DHT22;2196;47.422;9.656;2022-10-31T10:24:25;13.70;99.90
4366;DHT22;2196;47.422;9.656;2022-10-31T10:27:02;13.90;99.90
4366;DHT22;2196;47.422;9.656;2022-10-31T10:29:37;13.70;99.90
4366;DHT22;2196;47.422;9.656;2022-10-31T10:32:09;13.60;99.90
4366;DHT22;2196;47.422;9.656;2022-10-31T10:34:43;13.80;99.90
4366;DHT22;2196;47.422;9.656;2022-10-31T10:37:21;13.90;99.90
4366;DHT22;2196;47.422;9.656;2022-10-31T10:39:53;14.10;99.90
4366;DHT22;2196;47.422;9.656;2022-10-31T10:42:23;14.30;99.90
4366;DHT22;2196;47.422;9.656;2022-10-31T10:45:15;14.30;99.90
4366;DHT22;2196;47.422;9.656;2022-10-31T10:48:06;14.20;99.90
4366;DHT22;2196;47.422;9.656;2022-10-31T10:50:40;14.20;99.90
4366;DHT22;2196;47.422;9.656;2022-10-31T10:53:18;14.20;99.90
4366;DHT22;2196;47.422;9.656;2022-10-31T10:56:02;14.10;99.90
4366;DHT22;2196;47.422;9.656;2022-10-31T10:58:32;14.20;99.90
4366;DHT22;2196;47.422;9.656;2022-10-31T11:01:08;14.20;99.90
4366;DHT22;2196;47.422;9.656;2022-10-31T11:03:35;14.30;99.90
4366;DHT22;2196;47.422;9.656;2022-10-31T11:06:03;14.50;99.90
4366;DHT22;2196;47.422;9.656;2022-10-31T11:08:33;14.50;99.90
4366;DHT22;2196;47.422;9.656;2022-10-31T11:11:02;14.50;99.90
4366;DHT22;2196;47.422;9.656;2022-10-31T11:13:30;14.40;99.90
4366;DHT22;2196;47.422;9.656;2022-10-31T11:16:01;14.50;99.90
4366;DHT22;2196;47.422;9.656;2022-10-31T11:18:30;14.70;99.90
4366;DHT22;2196;47.422;9.656;2022-10-31T11:20:59;14.60;99.90
4366;DHT22;2196;47.422;9.656;2022-10-31T11:23:28;14.60;99.90
4366;DHT22;2196;47.422;9.656;2022-10-31T11:25:59;14.60;99.90
4366;DHT22;2196;47.422;9.656;2022-10-31T11:28:27;14.60;99.90
4366;DHT22;2196;47.422;9.656;2022-10-31T11:30:57;14.60;99.90
4366;DHT22;2196;47.422;9.656;2022-10-31T11:33:29;14.60;99.90
4366;DHT22;2196;47.422;9.656;2022-10-31T11:35:58;14.60;99.90
4366;DHT22;2196;47.422;9.656;2022-10-31T11:38:30;14.50;99.90
4366;DHT22;2196;47.422;9.656;2022-10-31T11:41:07;14.30;99.90
4366;DHT22;2196;47.422;9.656;2022-10-31T11:43:36;14.00;99.90
4366;DHT22;2196;47.422;9.656;2022-10-31T11:46:09;13.90;99.90
4366;DHT22;2196;47.422;9.656;2022-10-31T11:48:36;13.90;99.90
4366;DHT22;2196;47.422;9.656;2022-10-31T11:51:04;13.80;99.90
4366;DHT22;2196;47.422;9.656;2022-10-31T11:53:33;13.60;99.90
4366;DHT22;2196;47.422;9.656;2022-10-31T11:56:10;13.60;99.90
4366;DHT22;2196;47.422;9.656;2022-10-31T11:58:39;13.60;99.90
4366;DHT22;2196;47.422;9.656;2022-10-31T12:01:23;13.60;99.90
4366;DHT22;2196;47.422;9.656;2022-10-31T12:03:59;13.60;99.90
4366;DHT22;2196;47.422;9.656;2022-10-31T12:06:32;13.70;99.90
4366;DHT22;2196;47.422;9.656;2022-10-31T12:09:00;13.80;99.90
4366;DHT22;2196;47.422;9.656;2022-10-31T12:11:37;13.80;99.90
4366;DHT22;2196;47.422;9.656;2022-10-31T12:14:15;13.90;99.90
4366;DHT22;2196;47.422;9.656;2022-10-31T12:16:49;13.80;99.90
4366;DHT22;2196;47.422;9.656;2022-10-31T12:19:28;13.90;99.90
4366;DHT22;2196;47.422;9.656;2022-10-31T12:22:06;13.90;99.90
4366;DHT22;2196;47.422;9.656;2022-10-31T12:24:53;14.00;99.90
4366;DHT22;2196;47.422;9.656;2022-10-31T12:27:35;13.90;99.90
4366;DHT22;2196;47.422;9.656;2022-10-31T12:30:15;14.00;99.90
4366;DHT22;2196;47.422;9.656;2022-10-31T12:32:56;14.00;99.90
4366;DHT22;2196;47.422;9.656;2022-10-31T12:35:32;14.10;99.90
4366;DHT22;2196;47.422;9.656;2022-10-31T12:38:12;14.20;99.90
4366;DHT22;2196;47.422;9.656;2022-10-31T12:43:45;14.40;99.90
4366;DHT22;2196;47.422;9.656;2022-10-31T12:46:20;14.60;99.90
4366;DHT22;2196;47.422;9.656;2022-10-31T12:49:05;14.60;99.90
4366;DHT22;2196;47.422;9.656;2022-10-31T12:51:42;14.50;99.90
4366;DHT22;2196;47.422;9.656;2022-10-31T12:54:29;14.50;99.90
4366;DHT22;2196;47.422;9.656;2022-10-31T12:57:05;14.40;99.90
4366;DHT22;2196;47.422;9.656;2022-10-31T12:59:40;14.30;99.90
4366;DHT22;2196;47.422;9.656;2022-10-31T13:02:15;14.10;99.90
4366;DHT22;2196;47.422;9.656;2022-10-31T13:04:46;14.30;99.90
4366;DHT22;2196;47.422;9.656;2022-10-31T13:07:19;14.30;99.90
4366;DHT22;2196;47.422;9.656;2022-10-31T13:09:53;14.20;99.90
4366;DHT22;2196;47.422;9.656;2022-10-31T13:12:23;14.20;99.90
4366;DHT22;2196;47.422;9.656;2022-10-31T13:14:53;14.20;99.90
4366;DHT22;2196;47.422;9.656;2022-10-31T13:17:26;14.20;99.90
4366;DHT22;2196;47.422;9.656;2022-10-31T13:20:03;14.10;99.90
4366;DHT22;2196;47.422;9.656;2022-10-31T13:22:35;14.10;99.90
4366;DHT22;2196;47.422;9.656;2022-10-31T13:25:10;14.00;99.90
4366;DHT22;2196;47.422;9.656;2022-10-31T13:27:45;14.00;99.90
4366;DHT22;2196;47.422;9.656;2022-10-31T13:30:17;13.90;99.90
4366;DHT22;2196;47.422;9.656;2022-10-31T13:32:47;13.90;99.90
4366;DHT22;2196;47.422;9.656;2022-10-31T13:35:24;13.90;99.90
4366;DHT22;2196;47.422;9.656;2022-10-31T13:38:02;13.80;99.90
4366;DHT22;2196;47.422;9.656;2022-10-31T13:40:37;13.90;99.90
4366;DHT22;2196;47.422;9.656;2022-10-31T13:43:10;14.00;99.90
4366;DHT22;2196;47.422;9.656;2022-10-31T13:45:49;13.90;99.90
4366;DHT22;2196;47.422;9.656;2022-10-31T13:48:36;13.90;99.90
4366;DHT22;2196;47.422;9.656;2022-10-31T13:51:06;13.90;99.90
4366;DHT22;2196;47.422;9.656;2022-10-31T13:53:43;13.90;99.90
4366;DHT22;2196;47.422;9.656;2022-10-31T13:56:17;13.90;99.90
4366;DHT22;2196;47.422;9.656;2022-10-31T13:59:03;13.90;99.90
4366;DHT22;2196;47.422;9.656;2022-10-31T14:01:33;14.00;99.90
4366;DHT22;2196;47.422;9.656;2022-10-31T14:04:04;14.00;99.90
4366;DHT22;2196;47.422;9.656;2022-10-31T14:06:41;14.20;99.90
4366;DHT22;2196;47.422;9.656;2022-10-31T14:09:19;14.10;99.90
4366;DHT22;2196;47.422;9.656;2022-10-31T14:11:48;14.00;99.90
4366;DHT22;2196;47.422;9.656;2022-10-31T14:14:17;14.10;99.90
4366;DHT22;2196;47.422;9.656;2022-10-31T14:16:53;13.90;99.90
4366;DHT22;2196;47.422;9.656;2022-10-31T14:19:21;13.90;99.90
4366;DHT22;2196;47.422;9.656;2022-10-31T14:21:49;13.90;99.90
4366;DHT22;2196;47.422;9.656;2022-10-31T14:24:34;13.90;99.90
4366;DHT22;2196;47.422;9.656;2022-10-31T14:27:05;13.90;99.90
4366;DHT22;2196;47.422;9.656;2022-10-31T14:29:51;13.90;99.90
4366;DHT22;2196;47.422;9.656;2022-10-31T14:32:22;14.00;99.90
4366;DHT22;2196;47.422;9.656;2022-10-31T14:34:55;14.00;99.90
4366;DHT22;2196;47.422;9.656;2022-10-31T14:40:39;14.20;99.90
4366;DHT22;2196;47.422;9.656;2022-10-31T14:46:09;14.30;99.90
4366;DHT22;2196;47.422;9.656;2022-10-31T14:49:01;14.20;99.90
4366;DHT22;2196;47.422;9.656;2022-10-31T14:51:35;14.10;99.90
4366;DHT22;2196;47.422;9.656;2022-10-31T14:54:04;14.00;99.90
4366;DHT22;2196;47.422;9.656;2022-10-31T14:56:34;14.00;99.90
4366;DHT22;2196;47.422;9.656;2022-10-31T14:59:05;13.90;99.90
4366;DHT22;2196;47.422;9.656;2022-10-31T15:01:38;13.90;99.90
4366;DHT22;2196;47.422;9.656;2022-10-31T15:04:12;13.90;99.90
4366;DHT22;2196;47.422;9.656;2022-10-31T15:06:42;13.90;99.90
4366;DHT22;2196;47.422;9.656;2022-10-31T15:09:21;13.80;99.90
4366;DHT22;2196;47.422;9.656;2022-10-31T15:11:49;13.80;99.90
4366;DHT22;2196;47.422;9.656;2022-10-31T15:14:23;13.80;99.90
4366;DHT22;2196;47.422;9.656;2022-10-31T15:16:50;13.70;99.90
4366;DHT22;2196;47.422;9.656;2022-10-31T15:19:23;13.70;99.90
4366;DHT22;2196;47.422;9.656;2022-10-31T15:21:51;13.60;99.90
4366;DHT22;2196;47.422;9.656;2022-10-31T15:24:19;13.60;99.90
4366;DHT22;2196;47.422;9.656;2022-10-31T15:26:49;13.50;99.90
4366;DHT22;2196;47.422;9.656;2022-10-31T15:29:19;13.50;99.90
4366;DHT22;2196;47.422;9.656;2022-10-31T15:31:51;13.50;99.90
4366;DHT22;2196;47.422;9.656;2022-10-31T15:34:27;13.40;99.90
4366;DHT22;2196;47.422;9.656;2022-10-31T15:36:56;13.40;99.90
4366;DHT22;2196;47.422;9.656;2022-10-31T15:39:23;13.30;99.90
4366;DHT22;2196;47.422;9.656;2022-10-31T15:41:52;13.30;99.90
4366;DHT22;2196;47.422;9.656;2022-10-31T15:44:23;13.30;99.90
4366;DHT22;2196;47.422;9.656;2022-10-31T15:46:55;13.20;99.90
4366;DHT22;2196;47.422;9.656;2022-10-31T15:49:32;13.10;99.90
4366;DHT22;2196;47.422;9.656;2022-10-31T15:52:08;13.10;99.90
4366;DHT22;2196;47.422;9.656;2022-10-31T15:54:44;13.00;99.90
4366;DHT22;2196;47.422;9.656;2022-10-31T15:57:12;12.90;99.90
4366;DHT22;2196;47.422;9.656;2022-10-31T15:59:41;12.80;99.90
4366;DHT22;2196;47.422;9.656;2022-10-31T16:02:11;12.80;99.90
4366;DHT22;2196;47.422;9.656;2022-10-31T16:04:50;12.70;99.90
4366;DHT22;2196;47.422;9.656;2022-10-31T16:07:18;12.60;99.90
4366;DHT22;2196;47.422;9.656;2022-10-31T16:09:53;12.50;99.90
4366;DHT22;2196;47.422;9.656;2022-10-31T16:12:21;12.50;99.90
4366;DHT22;2196;47.422;9.656;2022-10-31T16:14:50;12.40;99.90
4366;DHT22;2196;47.422;9.656;2022-10-31T16:17:19;12.30;99.90
4366;DHT22;2196;47.422;9.656;2022-10-31T16:19:55;12.30;99.90
4366;DHT22;2196;47.422;9.656;2022-10-31T16:22:26;12.20;99.90
4366;DHT22;2196;47.422;9.656;2022-10-31T16:24:58;12.20;99.90
4366;DHT22;2196;47.422;9.656;2022-10-31T16:27:28;12.10;99.90
4366;DHT22;2196;47.422;9.656;2022-10-31T16:29:56;12.10;99.90
4366;DHT22;2196;47.422;9.656;2022-10-31T16:32:29;12.00;99.90
4366;DHT22;2196;47.422;9.656;2022-10-31T16:35:17;12.00;99.90
4366;DHT22;2196;47.422;9.656;2022-10-31T16:37:45;12.00;99.90
4366;DHT22;2196;47.422;9.656;2022-10-31T16:40:13;11.90;99.90
4366;DHT22;2196;47.422;9.656;2022-10-31T16:42:40;12.00;99.90
4366;DHT22;2196;47.422;9.656;2022-10-31T16:45:13;11.90;99.90
4366;DHT22;2196;47.422;9.656;2022-10-31T16:47:41;11.90;99.90